sensor_id;sensor_type;location;lat;lon;timestamp;pressure;altitude;pressure_sealevel;temperature;humidity
64711;BME280;51139;45.626;6.850;2023-03-04T00:01:12;81770.06;;;-2.16;87.07
64711;BME280;51139;45.626;6.850;2023-03-04T00:03:37;81772.16;;;-1.84;83.72
64711;BME280;51139;45.626;6.850;2023-03-04T00:06:03;81767.22;;;-1.87;83.38
64711;BME280;51139;45.626;6.850;2023-03-04T00:08:28;81768.72;;;-2.28;84.05
64711;BME280;51139;45.626;6.850;2023-03-04T00:10:54;81775.38;;;-1.72;79.99
64711;BME280;51139;45.626;6.850;2023-03-04T00:13:19;81780.03;;;-1.65;79.64
64711;BME280;51139;45.626;6.850;2023-03-04T00:15:47;81773.91;;;-1.42;78.69
64711;BME280;51139;45.626;6.850;2023-03-04T00:18:12;81781.31;;;-2.08;79.68
64711;BME280;51139;45.626;6.850;2023-03-04T00:20:38;81775.00;;;-2.48;81.58
64711;BME280;51139;45.626;6.850;2023-03-04T00:23:03;81775.13;;;-2.35;78.42
64711;BME280;51139;45.626;6.850;2023-03-04T00:25:28;81783.47;;;-2.12;76.93
64711;BME280;51139;45.626;6.850;2023-03-04T00:27:54;81776.72;;;-1.96;75.62
64711;BME280;51139;45.626;6.850;2023-03-04T00:30:19;81770.22;;;-2.08;74.10
64711;BME280;51139;45.626;6.850;2023-03-04T00:32:45;81770.94;;;-2.08;72.62
64711;BME280;51139;45.626;6.850;2023-03-04T00:35:10;81777.53;;;-2.07;72.92
64711;BME280;51139;45.626;6.850;2023-03-04T00:37:36;81775.63;;;-2.06;71.65
64711;BME280;51139;45.626;6.850;2023-03-04T00:40:01;81772.78;;;-2.02;72.05
64711;BME280;51139;45.626;6.850;2023-03-04T00:42:27;81772.69;;;-1.91;71.82
64711;BME280;51139;45.626;6.850;2023-03-04T00:44:52;81773.16;;;-2.23;71.05
64711;BME280;51139;45.626;6.850;2023-03-04T00:47:18;81774.28;;;-2.13;70.74
64711;BME280;51139;45.626;6.850;2023-03-04T00:49:43;81770.53;;;-1.87;68.84
64711;BME280;51139;45.626;6.850;2023-03-04T00:52:08;81771.84;;;-1.74;68.10
64711;BME280;51139;45.626;6.850;2023-03-04T00:54:34;81770.06;;;-1.60;68.39
64711;BME280;51139;45.626;6.850;2023-03-04T00:57:00;81772.81;;;-1.53;65.67
64711;BME280;51139;45.626;6.850;2023-03-04T00:59:25;81765.75;;;-1.52;65.40
64711;BME280;51139;45.626;6.850;2023-03-04T01:01:50;81770.22;;;-1.78;67.54
64711;BME280;51139;45.626;6.850;2023-03-04T01:04:16;81767.72;;;-1.89;67.81
64711;BME280;51139;45.626;6.850;2023-03-04T01:06:41;81766.09;;;-1.92;67.10
64711;BME280;51139;45.626;6.850;2023-03-04T01:09:06;81769.59;;;-1.89;66.47
64711;BME280;51139;45.626;6.850;2023-03-04T01:11:32;81768.38;;;-2.13;67.58
64711;BME280;51139;45.626;6.850;2023-03-04T01:13:58;81768.13;;;-2.10;67.42
64711;BME280;51139;45.626;6.850;2023-03-04T01:16:23;81762.13;;;-1.99;67.53
64711;BME280;51139;45.626;6.850;2023-03-04T01:18:48;81756.69;;;-1.95;68.28
64711;BME280;51139;45.626;6.850;2023-03-04T01:21:14;81751.03;;;-1.99;69.17
64711;BME280;51139;45.626;6.850;2023-03-04T01:23:39;81750.13;;;-2.02;69.42
64711;BME280;51139;45.626;6.850;2023-03-04T01:26:05;81749.47;;;-2.08;69.31
64711;BME280;51139;45.626;6.850;2023-03-04T01:28:30;81748.66;;;-1.97;69.19
64711;BME280;51139;45.626;6.850;2023-03-04T01:31:00;81754.09;;;-1.95;69.62
64711;BME280;51139;45.626;6.850;2023-03-04T01:33:26;81748.78;;;-2.14;70.54
64711;BME280;51139;45.626;6.850;2023-03-04T01:35:51;81752.25;;;-2.37;72.35
64711;BME280;51139;45.626;6.850;2023-03-04T01:38:16;81740.75;;;-2.41;74.21
64711;BME280;51139;45.626;6.850;2023-03-04T01:40:42;81743.94;;;-2.29;72.22
64711;BME280;51139;45.626;6.850;2023-03-04T01:43:12;81744.09;;;-2.16;69.96
64711;BME280;51139;45.626;6.850;2023-03-04T01:45:40;81738.38;;;-2.09;68.00
64711;BME280;51139;45.626;6.850;2023-03-04T01:48:08;81739.59;;;-2.15;68.25
64711;BME280;51139;45.626;6.850;2023-03-04T01:50:34;81744.13;;;-1.91;65.03
64711;BME280;51139;45.626;6.850;2023-03-04T01:53:01;81731.75;;;-1.54;63.67
64711;BME280;51139;45.626;6.850;2023-03-04T01:55:29;81740.09;;;-1.62;63.21
64711;BME280;51139;45.626;6.850;2023-03-04T01:57:55;81741.28;;;-1.38;62.95
64711;BME280;51139;45.626;6.850;2023-03-04T02:00:28;81743.00;;;-1.02;61.51
64711;BME280;51139;45.626;6.850;2023-03-04T02:03:00;81735.75;;;-1.09;59.87
64711;BME280;51139;45.626;6.850;2023-03-04T02:05:28;81742.38;;;-1.33;59.71
64711;BME280;51139;45.626;6.850;2023-03-04T02:07:56;81730.97;;;-1.24;59.23
64711;BME280;51139;45.626;6.850;2023-03-04T02:10:23;81729.94;;;-0.96;58.12
64711;BME280;51139;45.626;6.850;2023-03-04T02:12:49;81725.03;;;-1.00;56.97
64711;BME280;51139;45.626;6.850;2023-03-04T02:15:15;81729.53;;;-1.69;60.09
64711;BME280;51139;45.626;6.850;2023-03-04T02:17:41;81731.06;;;-2.10;62.69
64711;BME280;51139;45.626;6.850;2023-03-04T02:22:44;81720.91;;;-2.39;63.75
64711;BME280;51139;45.626;6.850;2023-03-04T02:25:17;81720.06;;;-2.53;63.24
64711;BME280;51139;45.626;6.850;2023-03-04T02:27:46;81719.59;;;-2.51;63.35
64711;BME280;51139;45.626;6.850;2023-03-04T02:30:12;81722.97;;;-2.62;63.24
64711;BME280;51139;45.626;6.850;2023-03-04T02:32:37;81718.22;;;-2.58;62.10
64711;BME280;51139;45.626;6.850;2023-03-04T02:35:03;81724.56;;;-2.53;62.76
64711;BME280;51139;45.626;6.850;2023-03-04T02:37:28;81723.53;;;-2.75;63.29
64711;BME280;51139;45.626;6.850;2023-03-04T02:39:54;81722.00;;;-2.59;63.16
64711;BME280;51139;45.626;6.850;2023-03-04T02:42:19;81721.94;;;-2.47;63.16
64711;BME280;51139;45.626;6.850;2023-03-04T02:44:45;81718.09;;;-2.41;62.77
64711;BME280;51139;45.626;6.850;2023-03-04T02:47:14;81716.38;;;-2.32;61.77
64711;BME280;51139;45.626;6.850;2023-03-04T02:49:42;81713.63;;;-2.40;63.07
64711;BME280;51139;45.626;6.850;2023-03-04T02:52:15;81716.91;;;-2.40;62.86
64711;BME280;51139;45.626;6.850;2023-03-04T02:54:41;81706.53;;;-2.40;62.78
64711;BME280;51139;45.626;6.850;2023-03-04T02:57:09;81701.25;;;-2.28;62.39
64711;BME280;51139;45.626;6.850;2023-03-04T02:59:36;81702.44;;;-2.29;61.38
64711;BME280;51139;45.626;6.850;2023-03-04T03:02:01;81709.63;;;-2.11;60.23
64711;BME280;51139;45.626;6.850;2023-03-04T03:04:27;81702.41;;;-2.24;61.36
64711;BME280;51139;45.626;6.850;2023-03-04T03:06:52;81705.91;;;-2.21;60.04
64711;BME280;51139;45.626;6.850;2023-03-04T03:09:18;81697.78;;;-2.37;60.29
64711;BME280;51139;45.626;6.850;2023-03-04T03:11:44;81697.44;;;-2.52;60.54
64711;BME280;51139;45.626;6.850;2023-03-04T03:14:09;81697.31;;;-2.35;60.03
64711;BME280;51139;45.626;6.850;2023-03-04T03:16:35;81705.53;;;-2.31;58.87
64711;BME280;51139;45.626;6.850;2023-03-04T03:19:00;81702.13;;;-2.51;59.39
64711;BME280;51139;45.626;6.850;2023-03-04T03:21:25;81701.81;;;-2.72;60.09
64711;BME280;51139;45.626;6.850;2023-03-04T03:23:51;81698.91;;;-2.62;59.89
64711;BME280;51139;45.626;6.850;2023-03-04T03:26:17;81694.50;;;-2.73;59.93
64711;BME280;51139;45.626;6.850;2023-03-04T03:28:42;81695.75;;;-2.80;60.60
64711;BME280;51139;45.626;6.850;2023-03-04T03:31:08;81692.44;;;-2.81;60.61
64711;BME280;51139;45.626;6.850;2023-03-04T03:33:34;81692.94;;;-2.82;60.45
64711;BME280;51139;45.626;6.850;2023-03-04T03:35:59;81694.72;;;-2.71;59.17
64711;BME280;51139;45.626;6.850;2023-03-04T03:38:26;81692.19;;;-2.77;59.40
64711;BME280;51139;45.626;6.850;2023-03-04T03:40:51;81696.53;;;-2.60;58.60
64711;BME280;51139;45.626;6.850;2023-03-04T03:43:16;81686.44;;;-2.64;58.64
64711;BME280;51139;45.626;6.850;2023-03-04T03:45:42;81691.31;;;-2.55;58.44
64711;BME280;51139;45.626;6.850;2023-03-04T03:48:07;81696.06;;;-2.59;58.30
64711;BME280;51139;45.626;6.850;2023-03-04T03:50:33;81700.41;;;-2.73;58.98
64711;BME280;51139;45.626;6.850;2023-03-04T03:52:58;81696.41;;;-2.74;59.18
64711;BME280;51139;45.626;6.850;2023-03-04T03:55:23;81695.91;;;-2.72;58.78
64711;BME280;51139;45.626;6.850;2023-03-04T03:57:49;81700.34;;;-2.67;58.34
64711;BME280;51139;45.626;6.850;2023-03-04T04:00:15;81700.81;;;-2.63;57.75
64711;BME280;51139;45.626;6.850;2023-03-04T04:02:41;81703.09;;;-2.54;58.14
64711;BME280;51139;45.626;6.850;2023-03-04T04:05:08;81713.72;;;-2.57;58.38
64711;BME280;51139;45.626;6.850;2023-03-04T04:07:35;81705.06;;;-2.66;57.67
64711;BME280;51139;45.626;6.850;2023-03-04T04:10:02;81706.44;;;-2.59;57.77
64711;BME280;51139;45.626;6.850;2023-03-04T04:12:27;81701.03;;;-2.61;58.26
64711;BME280;51139;45.626;6.850;2023-03-04T04:14:53;81704.06;;;-2.57;57.29
64711;BME280;51139;45.626;6.850;2023-03-04T04:17:18;81703.91;;;-2.70;57.67
64711;BME280;51139;45.626;6.850;2023-03-04T04:19:44;81697.59;;;-2.75;58.33
64711;BME280;51139;45.626;6.850;2023-03-04T04:22:14;81707.91;;;-2.69;58.42
64711;BME280;51139;45.626;6.850;2023-03-04T04:24:40;81695.47;;;-2.76;57.93
64711;BME280;51139;45.626;6.850;2023-03-04T04:27:06;81695.97;;;-2.78;58.21
64711;BME280;51139;45.626;6.850;2023-03-04T04:29:31;81701.16;;;-2.78;58.31
64711;BME280;51139;45.626;6.850;2023-03-04T04:31:57;81700.34;;;-2.67;58.13
64711;BME280;51139;45.626;6.850;2023-03-04T04:34:23;81699.13;;;-2.60;57.96
64711;BME280;51139;45.626;6.850;2023-03-04T04:36:49;81706.38;;;-2.53;57.97
64711;BME280;51139;45.626;6.850;2023-03-04T04:39:14;81697.47;;;-2.58;58.26
64711;BME280;51139;45.626;6.850;2023-03-04T04:41:43;81700.09;;;-2.64;58.51
64711;BME280;51139;45.626;6.850;2023-03-04T04:44:09;81701.81;;;-2.72;58.61
64711;BME280;51139;45.626;6.850;2023-03-04T04:46:35;81707.28;;;-2.81;59.06
64711;BME280;51139;45.626;6.850;2023-03-04T04:49:01;81705.44;;;-2.86;59.07
64711;BME280;51139;45.626;6.850;2023-03-04T04:51:27;81706.34;;;-2.84;59.15
64711;BME280;51139;45.626;6.850;2023-03-04T04:53:52;81705.41;;;-2.81;59.40
64711;BME280;51139;45.626;6.850;2023-03-04T04:56:21;81703.06;;;-2.84;58.36
64711;BME280;51139;45.626;6.850;2023-03-04T04:58:47;81709.16;;;-2.76;58.45
64711;BME280;51139;45.626;6.850;2023-03-04T05:01:13;81706.06;;;-2.74;57.97
64711;BME280;51139;45.626;6.850;2023-03-04T05:03:39;81704.88;;;-2.73;57.89
64711;BME280;51139;45.626;6.850;2023-03-04T05:06:06;81705.59;;;-2.73;57.64
64711;BME280;51139;45.626;6.850;2023-03-04T05:08:32;81708.22;;;-2.79;57.96
64711;BME280;51139;45.626;6.850;2023-03-04T05:10:58;81710.63;;;-2.86;57.71
64711;BME280;51139;45.626;6.850;2023-03-04T05:13:23;81709.22;;;-2.87;58.33
64711;BME280;51139;45.626;6.850;2023-03-04T05:15:53;81709.47;;;-2.91;58.00
64711;BME280;51139;45.626;6.850;2023-03-04T05:18:21;81712.22;;;-2.78;57.78
64711;BME280;51139;45.626;6.850;2023-03-04T05:21:05;81712.03;;;-2.18;54.86
64711;BME280;51139;45.626;6.850;2023-03-04T05:23:34;81710.16;;;-2.18;54.76
64711;BME280;51139;45.626;6.850;2023-03-04T05:26:00;81712.94;;;-2.77;56.21
64711;BME280;51139;45.626;6.850;2023-03-04T05:28:25;81705.28;;;-3.00;57.70
64711;BME280;51139;45.626;6.850;2023-03-04T05:30:50;81709.53;;;-3.02;57.58
64711;BME280;51139;45.626;6.850;2023-03-04T05:33:16;81718.25;;;-3.00;57.53
64711;BME280;51139;45.626;6.850;2023-03-04T05:35:43;81705.47;;;-2.92;56.75
64711;BME280;51139;45.626;6.850;2023-03-04T05:38:10;81707.16;;;-2.95;55.93
64711;BME280;51139;45.626;6.850;2023-03-04T05:40:37;81707.59;;;-2.90;56.03
64711;BME280;51139;45.626;6.850;2023-03-04T05:43:03;81709.56;;;-2.36;53.88
64711;BME280;51139;45.626;6.850;2023-03-04T05:45:28;81706.63;;;-2.51;54.44
64711;BME280;51139;45.626;6.850;2023-03-04T05:47:54;81713.94;;;-2.55;54.08
64711;BME280;51139;45.626;6.850;2023-03-04T05:50:21;81717.06;;;-2.62;53.45
64711;BME280;51139;45.626;6.850;2023-03-04T05:52:47;81717.25;;;-2.91;54.23
64711;BME280;51139;45.626;6.850;2023-03-04T05:55:13;81724.31;;;-2.91;54.97
64711;BME280;51139;45.626;6.850;2023-03-04T05:57:39;81711.16;;;-2.94;54.81
64711;BME280;51139;45.626;6.850;2023-03-04T06:00:05;81718.41;;;-2.86;55.10
64711;BME280;51139;45.626;6.850;2023-03-04T06:02:36;81709.72;;;-2.58;54.73
64711;BME280;51139;45.626;6.850;2023-03-04T06:05:03;81715.94;;;-2.06;53.05
64711;BME280;51139;45.626;6.850;2023-03-04T06:07:28;81719.34;;;-2.17;52.21
64711;BME280;51139;45.626;6.850;2023-03-04T06:09:53;81712.31;;;-2.53;52.90
64711;BME280;51139;45.626;6.850;2023-03-04T06:12:19;81723.06;;;-2.43;53.55
64711;BME280;51139;45.626;6.850;2023-03-04T06:14:44;81721.75;;;-2.97;55.61
64711;BME280;51139;45.626;6.850;2023-03-04T06:17:10;81724.84;;;-2.99;55.88
64711;BME280;51139;45.626;6.850;2023-03-04T06:19:35;81728.63;;;-3.00;55.95
64711;BME280;51139;45.626;6.850;2023-03-04T06:22:02;81726.28;;;-3.03;56.04
64711;BME280;51139;45.626;6.850;2023-03-04T06:24:28;81729.63;;;-3.14;56.66
64711;BME280;51139;45.626;6.850;2023-03-04T06:26:53;81736.41;;;-3.05;56.06
64711;BME280;51139;45.626;6.850;2023-03-04T06:29:19;81729.09;;;-3.01;56.35
64711;BME280;51139;45.626;6.850;2023-03-04T06:31:44;81724.78;;;-2.93;55.73
64711;BME280;51139;45.626;6.850;2023-03-04T06:34:09;81734.19;;;-2.90;55.46
64711;BME280;51139;45.626;6.850;2023-03-04T06:36:35;81725.91;;;-2.83;55.45
64711;BME280;51139;45.626;6.850;2023-03-04T06:39:02;81734.63;;;-2.80;55.34
64711;BME280;51139;45.626;6.850;2023-03-04T06:41:28;81721.91;;;-2.84;55.13
64711;BME280;51139;45.626;6.850;2023-03-04T06:43:53;81733.44;;;-2.79;55.47
64711;BME280;51139;45.626;6.850;2023-03-04T06:46:19;81735.06;;;-2.76;55.45
64711;BME280;51139;45.626;6.850;2023-03-04T06:48:45;81737.25;;;-2.86;55.34
64711;BME280;51139;45.626;6.850;2023-03-04T06:51:10;81733.69;;;-2.83;55.11
64711;BME280;51139;45.626;6.850;2023-03-04T06:53:37;81735.75;;;-2.75;55.13
64711;BME280;51139;45.626;6.850;2023-03-04T06:56:03;81739.75;;;-2.74;55.42
64711;BME280;51139;45.626;6.850;2023-03-04T06:58:28;81746.59;;;-2.71;55.30
64711;BME280;51139;45.626;6.850;2023-03-04T07:00:54;81734.06;;;-2.31;54.14
64711;BME280;51139;45.626;6.850;2023-03-04T07:03:19;81742.06;;;-1.98;54.05
64711;BME280;51139;45.626;6.850;2023-03-04T07:05:45;81745.75;;;-1.88;53.22
64711;BME280;51139;45.626;6.850;2023-03-04T07:08:10;81742.19;;;-1.60;53.06
64711;BME280;51139;45.626;6.850;2023-03-04T07:10:36;81739.03;;;-1.28;52.63
64711;BME280;51139;45.626;6.850;2023-03-04T07:13:01;81746.03;;;-0.98;52.24
64711;BME280;51139;45.626;6.850;2023-03-04T07:15:29;81750.03;;;-0.59;51.41
64711;BME280;51139;45.626;6.850;2023-03-04T07:17:54;81747.22;;;-0.22;50.24
64711;BME280;51139;45.626;6.850;2023-03-04T07:20:20;81751.13;;;-0.16;50.28
64711;BME280;51139;45.626;6.850;2023-03-04T07:22:46;81740.63;;;0.23;49.65
64711;BME280;51139;45.626;6.850;2023-03-04T07:25:11;81743.88;;;0.42;48.98
64711;BME280;51139;45.626;6.850;2023-03-04T07:27:36;81747.09;;;0.76;48.52
64711;BME280;51139;45.626;6.850;2023-03-04T07:30:04;81741.72;;;1.62;45.58
64711;BME280;51139;45.626;6.850;2023-03-04T07:32:30;81741.38;;;1.31;45.31
64711;BME280;51139;45.626;6.850;2023-03-04T07:34:55;81740.28;;;2.30;45.56
64711;BME280;51139;45.626;6.850;2023-03-04T07:37:20;81738.00;;;3.64;43.28
64711;BME280;51139;45.626;6.850;2023-03-04T07:39:46;81739.38;;;3.57;42.52
64711;BME280;51139;45.626;6.850;2023-03-04T07:42:11;81744.63;;;2.99;46.43
64711;BME280;51139;45.626;6.850;2023-03-04T07:44:36;81748.25;;;3.54;46.23
64711;BME280;51139;45.626;6.850;2023-03-04T07:47:02;81739.22;;;3.63;45.33
64711;BME280;51139;45.626;6.850;2023-03-04T07:49:27;81747.31;;;3.80;43.73
64711;BME280;51139;45.626;6.850;2023-03-04T07:51:53;81750.66;;;3.44;43.90
64711;BME280;51139;45.626;6.850;2023-03-04T07:54:18;81744.31;;;3.76;44.70
64711;BME280;51139;45.626;6.850;2023-03-04T07:56:44;81751.41;;;4.05;44.63
64711;BME280;51139;45.626;6.850;2023-03-04T07:59:10;81739.88;;;4.00;43.34
64711;BME280;51139;45.626;6.850;2023-03-04T08:01:36;81736.00;;;5.08;41.96
64711;BME280;51139;45.626;6.850;2023-03-04T08:04:04;81741.75;;;5.14;42.13
64711;BME280;51139;45.626;6.850;2023-03-04T08:06:31;81739.47;;;5.18;40.47
64711;BME280;51139;45.626;6.850;2023-03-04T08:08:59;81741.06;;;4.90;40.72
64711;BME280;51139;45.626;6.850;2023-03-04T08:11:25;81731.19;;;5.61;41.98
64711;BME280;51139;45.626;6.850;2023-03-04T08:13:51;81733.13;;;6.24;42.04
64711;BME280;51139;45.626;6.850;2023-03-04T08:16:20;81741.69;;;5.68;41.55
64711;BME280;51139;45.626;6.850;2023-03-04T08:18:48;81744.72;;;4.64;45.52
64711;BME280;51139;45.626;6.850;2023-03-04T08:21:15;81743.84;;;4.53;44.39
64711;BME280;51139;45.626;6.850;2023-03-04T08:23:43;81740.44;;;5.77;40.52
64711;BME280;51139;45.626;6.850;2023-03-04T08:26:16;81736.88;;;5.90;41.09
64711;BME280;51139;45.626;6.850;2023-03-04T08:28:41;81747.53;;;5.05;43.82
64711;BME280;51139;45.626;6.850;2023-03-04T08:31:07;81737.00;;;5.36;40.03
64711;BME280;51139;45.626;6.850;2023-03-04T08:33:33;81742.59;;;5.40;38.91
64711;BME280;51139;45.626;6.850;2023-03-04T08:35:59;81741.50;;;5.59;41.32
64711;BME280;51139;45.626;6.850;2023-03-04T08:38:24;81743.75;;;6.34;37.15
64711;BME280;51139;45.626;6.850;2023-03-04T08:40:54;81745.97;;;5.97;39.32
64711;BME280;51139;45.626;6.850;2023-03-04T08:43:21;81744.06;;;6.05;39.89
64711;BME280;51139;45.626;6.850;2023-03-04T08:45:46;81740.22;;;5.91;40.51
64711;BME280;51139;45.626;6.850;2023-03-04T08:48:12;81746.50;;;5.95;42.46
64711;BME280;51139;45.626;6.850;2023-03-04T08:50:37;81753.47;;;6.16;39.69
64711;BME280;51139;45.626;6.850;2023-03-04T08:53:03;81747.09;;;6.35;39.97
64711;BME280;51139;45.626;6.850;2023-03-04T08:55:28;81740.28;;;5.60;40.29
64711;BME280;51139;45.626;6.850;2023-03-04T08:57:54;81752.31;;;5.86;37.20
64711;BME280;51139;45.626;6.850;2023-03-04T09:00:19;81745.25;;;6.12;41.60
64711;BME280;51139;45.626;6.850;2023-03-04T09:02:46;81753.53;;;5.93;39.76
64711;BME280;51139;45.626;6.850;2023-03-04T09:05:11;81751.25;;;6.46;38.26
64711;BME280;51139;45.626;6.850;2023-03-04T09:07:37;81752.19;;;6.66;37.70
64711;BME280;51139;45.626;6.850;2023-03-04T09:10:03;81755.59;;;6.51;38.59
64711;BME280;51139;45.626;6.850;2023-03-04T09:12:29;81751.28;;;6.38;42.32
64711;BME280;51139;45.626;6.850;2023-03-04T09:14:54;81759.19;;;6.71;45.22
64711;BME280;51139;45.626;6.850;2023-03-04T09:17:20;81751.56;;;6.50;41.77
64711;BME280;51139;45.626;6.850;2023-03-04T09:19:45;81760.28;;;5.47;45.84
64711;BME280;51139;45.626;6.850;2023-03-04T09:22:10;81761.00;;;6.61;42.63
64711;BME280;51139;45.626;6.850;2023-03-04T09:24:36;81762.06;;;7.16;43.67
64711;BME280;51139;45.626;6.850;2023-03-04T09:27:01;81758.63;;;7.06;42.83
64711;BME280;51139;45.626;6.850;2023-03-04T09:29:27;81754.75;;;6.81;43.64
64711;BME280;51139;45.626;6.850;2023-03-04T09:31:52;81758.19;;;6.66;45.03
64711;BME280;51139;45.626;6.850;2023-03-04T09:34:18;81767.13;;;5.27;46.04
64711;BME280;51139;45.626;6.850;2023-03-04T09:36:43;81765.72;;;5.57;46.89
64711;BME280;51139;45.626;6.850;2023-03-04T09:39:09;81772.88;;;5.57;45.68
64711;BME280;51139;45.626;6.850;2023-03-04T09:41:41;81774.47;;;5.05;43.50
64711;BME280;51139;45.626;6.850;2023-03-04T09:44:29;81773.94;;;4.76;48.21
64711;BME280;51139;45.626;6.850;2023-03-04T09:46:59;81772.19;;;4.63;48.88
64711;BME280;51139;45.626;6.850;2023-03-04T09:49:26;81775.84;;;4.67;51.17
64711;BME280;51139;45.626;6.850;2023-03-04T09:57:16;81779.19;;;4.76;53.26
64711;BME280;51139;45.626;6.850;2023-03-04T10:03:17;81783.03;;;4.75;50.67
64711;BME280;51139;45.626;6.850;2023-03-04T10:05:50;81774.81;;;4.03;53.04
64711;BME280;51139;45.626;6.850;2023-03-04T10:11:22;81770.97;;;5.26;49.45
64711;BME280;51139;45.626;6.850;2023-03-04T10:16:43;81778.28;;;4.65;51.01
64711;BME280;51139;45.626;6.850;2023-03-04T10:21:42;81785.34;;;5.17;50.29
64711;BME280;51139;45.626;6.850;2023-03-04T10:24:14;81775.91;;;4.99;50.62
64711;BME280;51139;45.626;6.850;2023-03-04T10:26:43;81772.03;;;5.00;52.02
64711;BME280;51139;45.626;6.850;2023-03-04T10:29:18;81768.16;;;4.70;50.32
64711;BME280;51139;45.626;6.850;2023-03-04T10:31:44;81765.56;;;5.01;49.66
64711;BME280;51139;45.626;6.850;2023-03-04T10:34:11;81763.38;;;4.37;49.54
64711;BME280;51139;45.626;6.850;2023-03-04T10:36:57;81764.25;;;3.79;51.72
64711;BME280;51139;45.626;6.850;2023-03-04T10:39:38;81764.13;;;4.61;52.01
64711;BME280;51139;45.626;6.850;2023-03-04T10:44:55;81756.81;;;5.21;49.65
64711;BME280;51139;45.626;6.850;2023-03-04T10:47:22;81754.53;;;5.02;52.17
64711;BME280;51139;45.626;6.850;2023-03-04T10:49:53;81763.06;;;3.52;50.75
64711;BME280;51139;45.626;6.850;2023-03-04T10:54:51;81757.16;;;5.10;51.46
64711;BME280;51139;45.626;6.850;2023-03-04T10:57:33;81755.91;;;4.64;47.96
64711;BME280;51139;45.626;6.850;2023-03-04T11:00:01;81751.56;;;4.90;52.81
64711;BME280;51139;45.626;6.850;2023-03-04T11:02:34;81752.63;;;5.18;49.29
64711;BME280;51139;45.626;6.850;2023-03-04T11:07:38;81757.50;;;4.83;51.69
64711;BME280;51139;45.626;6.850;2023-03-04T11:10:16;81757.78;;;4.33;49.19
64711;BME280;51139;45.626;6.850;2023-03-04T11:13:00;81754.44;;;4.24;51.57
64711;BME280;51139;45.626;6.850;2023-03-04T11:15:28;81757.13;;;3.51;52.98
64711;BME280;51139;45.626;6.850;2023-03-04T11:18:14;81753.53;;;4.06;54.68
64711;BME280;51139;45.626;6.850;2023-03-04T11:20:43;81745.94;;;4.71;52.54
64711;BME280;51139;45.626;6.850;2023-03-04T11:23:16;81753.66;;;4.61;52.36
64711;BME280;51139;45.626;6.850;2023-03-04T11:25:46;81754.50;;;4.56;50.42
64711;BME280;51139;45.626;6.850;2023-03-04T11:30:51;81748.75;;;4.73;51.57
64711;BME280;51139;45.626;6.850;2023-03-04T11:35:56;81744.03;;;5.02;50.06
64711;BME280;51139;45.626;6.850;2023-03-04T11:38:30;81739.47;;;4.48;50.87
64711;BME280;51139;45.626;6.850;2023-03-04T11:41:01;81738.75;;;3.80;49.92
64711;BME280;51139;45.626;6.850;2023-03-04T11:43:33;81738.72;;;3.72;55.31
64711;BME280;51139;45.626;6.850;2023-03-04T11:52:07;81731.19;;;4.21;53.74
64711;BME280;51139;45.626;6.850;2023-03-04T11:54:43;81721.66;;;3.87;57.64
64711;BME280;51139;45.626;6.850;2023-03-04T11:57:37;81718.38;;;4.02;54.40
64711;BME280;51139;45.626;6.850;2023-03-04T12:06:11;81709.53;;;4.44;50.01
64711;BME280;51139;45.626;6.850;2023-03-04T12:09:11;81704.78;;;4.19;53.75
64711;BME280;51139;45.626;6.850;2023-03-04T12:12:12;81703.97;;;4.63;52.91
64711;BME280;51139;45.626;6.850;2023-03-04T12:17:57;81692.59;;;4.91;57.64
64711;BME280;51139;45.626;6.850;2023-03-04T12:26:23;81681.22;;;4.34;54.77
64711;BME280;51139;45.626;6.850;2023-03-04T12:29:24;81685.25;;;4.43;56.97
64711;BME280;51139;45.626;6.850;2023-03-04T12:48:40;81660.50;;;5.39;51.71
64711;BME280;51139;45.626;6.850;2023-03-04T12:51:43;81656.84;;;5.76;52.54
64711;BME280;51139;45.626;6.850;2023-03-04T12:54:13;81659.22;;;5.48;52.19
64711;BME280;51139;45.626;6.850;2023-03-04T12:59:25;81656.09;;;6.32;46.82
64711;BME280;51139;45.626;6.850;2023-03-04T13:04:58;81644.75;;;6.47;47.79
64711;BME280;51139;45.626;6.850;2023-03-04T13:10:16;81643.84;;;6.52;43.29
64711;BME280;51139;45.626;6.850;2023-03-04T13:12:55;81647.88;;;6.27;42.97
64711;BME280;51139;45.626;6.850;2023-03-04T13:17:55;81639.44;;;6.29;42.99
64711;BME280;51139;45.626;6.850;2023-03-04T13:25:42;81637.91;;;6.18;44.44
64711;BME280;51139;45.626;6.850;2023-03-04T13:43:55;81640.66;;;5.95;43.18
64711;BME280;51139;45.626;6.850;2023-03-04T13:59:09;81647.91;;;6.20;42.36
64711;BME280;51139;45.626;6.850;2023-03-04T14:04:19;81633.53;;;6.21;43.77
64711;BME280;51139;45.626;6.850;2023-03-04T14:06:49;81644.34;;;6.33;44.11
64711;BME280;51139;45.626;6.850;2023-03-04T14:09:18;81640.38;;;6.16;39.63
64711;BME280;51139;45.626;6.850;2023-03-04T14:11:46;81648.31;;;6.08;41.07
64711;BME280;51139;45.626;6.850;2023-03-04T14:14:15;81649.81;;;6.27;40.26
64711;BME280;51139;45.626;6.850;2023-03-04T14:16:56;81640.09;;;6.37;39.74
64711;BME280;51139;45.626;6.850;2023-03-04T14:19:35;81641.38;;;6.28;40.93
64711;BME280;51139;45.626;6.850;2023-03-04T14:22:17;81641.28;;;6.11;42.16
64711;BME280;51139;45.626;6.850;2023-03-04T14:27:33;81629.88;;;5.75;40.30
64711;BME280;51139;45.626;6.850;2023-03-04T14:30:03;81629.31;;;5.36;43.49
64711;BME280;51139;45.626;6.850;2023-03-04T14:32:29;81626.69;;;5.44;43.65
64711;BME280;51139;45.626;6.850;2023-03-04T14:35:00;81629.94;;;5.60;42.07
64711;BME280;51139;45.626;6.850;2023-03-04T14:37:34;81634.44;;;5.75;42.74
64711;BME280;51139;45.626;6.850;2023-03-04T14:40:03;81619.88;;;5.40;43.48
64711;BME280;51139;45.626;6.850;2023-03-04T14:42:40;81619.53;;;5.36;42.74
64711;BME280;51139;45.626;6.850;2023-03-04T14:45:15;81618.53;;;5.16;43.40
64711;BME280;51139;45.626;6.850;2023-03-04T14:47:44;81622.78;;;4.88;44.55
64711;BME280;51139;45.626;6.850;2023-03-04T14:50:19;81613.31;;;4.85;45.10
64711;BME280;51139;45.626;6.850;2023-03-04T14:52:47;81613.66;;;4.97;44.97
64711;BME280;51139;45.626;6.850;2023-03-04T14:55:24;81616.31;;;4.89;44.87
64711;BME280;51139;45.626;6.850;2023-03-04T14:58:05;81610.59;;;5.32;44.54
64711;BME280;51139;45.626;6.850;2023-03-04T15:00:32;81609.31;;;4.92;44.28
64711;BME280;51139;45.626;6.850;2023-03-04T15:05:41;81613.66;;;4.97;46.33
64711;BME280;51139;45.626;6.850;2023-03-04T15:08:30;81611.66;;;5.21;45.96
64711;BME280;51139;45.626;6.850;2023-03-04T15:11:00;81615.78;;;4.83;46.04
64711;BME280;51139;45.626;6.850;2023-03-04T15:16:10;81609.13;;;4.82;47.22